createdAt,value
2018-03-06T00:00:14.954Z,19.20
2018-03-06T00:02:43.423Z,20.57
2018-03-06T00:05:11.112Z,21.67
2018-03-06T00:07:38.784Z,20.97
2018-03-06T00:10:06.375Z,23.57
2018-03-06T00:12:34.050Z,23.73
2018-03-06T00:15:01.631Z,24.50
2018-03-06T00:17:30.022Z,20.27
2018-03-06T00:19:57.602Z,23.00
2018-03-06T00:22:25.993Z,25.43
2018-03-06T00:24:54.333Z,26.87
2018-03-06T00:27:21.958Z,25.63
2018-03-06T00:29:50.313Z,28.83
2018-03-06T00:32:17.893Z,22.27
2018-03-06T00:34:45.479Z,22.77
2018-03-06T00:37:13.115Z,22.83
2018-03-06T00:39:40.703Z,22.57
2018-03-06T00:42:08.292Z,21.00
2018-03-06T00:44:35.893Z,25.27
2018-03-06T00:47:04.241Z,26.60
2018-03-06T00:49:31.827Z,28.73
2018-03-06T00:51:59.431Z,25.83
2018-03-06T00:54:27.024Z,27.47
2018-03-06T00:56:54.634Z,26.63
2018-03-06T00:59:22.243Z,26.60
2018-03-06T01:01:50.595Z,30.53
2018-03-06T01:04:18.186Z,29.93
2018-03-06T01:06:45.798Z,29.37
2018-03-06T01:09:13.402Z,27.93
2018-03-06T01:11:41.802Z,28.43
2018-03-06T01:14:09.411Z,32.57
2018-03-06T01:16:37.819Z,33.97
2018-03-06T01:19:06.180Z,29.90
2018-03-06T01:21:34.538Z,27.40
2018-03-06T01:24:02.149Z,26.40
2018-03-06T01:26:30.481Z,25.60
2018-03-06T01:28:58.142Z,28.40
2018-03-06T01:31:26.828Z,22.73
2018-03-06T01:33:55.251Z,21.47
2018-03-06T01:36:22.838Z,26.13
2018-03-06T01:38:50.414Z,21.97
2018-03-06T01:41:18.007Z,22.93
2018-03-06T01:43:45.951Z,22.33
2018-03-06T01:46:13.567Z,23.67
2018-03-06T01:48:41.150Z,26.13
2018-03-06T01:51:09.509Z,23.07
2018-03-06T01:53:37.277Z,27.13
2018-03-06T01:56:04.856Z,25.73
2018-03-06T01:58:32.458Z,26.47
2018-03-06T02:01:00.077Z,24.93
2018-03-06T02:03:27.686Z,24.87
2018-03-06T02:05:56.015Z,24.23
2018-03-06T02:08:23.604Z,25.17
2018-03-06T02:10:51.153Z,22.87
2018-03-06T02:13:18.751Z,22.30
2018-03-06T02:15:46.570Z,24.03
2018-03-06T02:18:14.233Z,27.20
2018-03-06T02:20:41.846Z,30.73
2018-03-06T02:23:10.191Z,27.67
2018-03-06T02:25:38.070Z,32.10
2018-03-06T02:28:05.651Z,27.03
2018-03-06T02:30:33.334Z,29.77
2018-03-06T02:33:00.913Z,24.00
2018-03-06T02:35:28.560Z,28.90
2018-03-06T02:37:56.138Z,28.07
2018-03-06T02:40:23.782Z,28.43
2018-03-06T02:42:51.363Z,24.50
2018-03-06T02:45:18.989Z,26.80
2018-03-06T02:47:47.345Z,25.40
2018-03-06T02:50:14.926Z,23.80
2018-03-06T02:52:42.510Z,27.13
2018-03-06T02:55:10.094Z,28.80
2018-03-06T02:57:39.269Z,30.57
2018-03-06T03:00:06.854Z,29.40
2018-03-06T03:02:35.215Z,28.07
2018-03-06T03:05:03.357Z,28.70
2018-03-06T03:07:31.716Z,25.57
2018-03-06T03:09:59.304Z,22.37
2018-03-06T03:12:26.890Z,24.33
2018-03-06T03:14:55.279Z,26.20
2018-03-06T03:17:23.658Z,28.60
2018-03-06T03:19:51.303Z,28.03
2018-03-06T03:22:19.590Z,28.47
2018-03-06T03:24:47.215Z,26.80
2018-03-06T03:27:15.663Z,34.13
2018-03-06T03:29:43.273Z,33.60
2018-03-06T03:32:10.989Z,28.43
2018-03-06T03:34:38.602Z,30.67
2018-03-06T03:37:06.199Z,32.77
2018-03-06T03:39:34.583Z,34.67
2018-03-06T03:42:02.996Z,37.93
2018-03-06T03:44:30.576Z,40.93
2018-03-06T03:46:58.906Z,36.87
2018-03-06T03:49:26.487Z,36.67
2018-03-06T03:51:54.073Z,34.07
2018-03-06T03:54:21.653Z,31.17
2018-03-06T03:56:49.230Z,35.57
2018-03-06T03:59:17.609Z,32.90
2018-03-06T04:01:45.277Z,37.87
2018-03-06T04:04:12.905Z,37.60
2018-03-06T04:06:40.585Z,50.67
2018-03-06T04:09:08.216Z,43.43
2018-03-06T04:11:35.815Z,57.57
2018-03-06T04:14:03.413Z,56.67
2018-03-06T04:16:31.009Z,51.90
2018-03-06T04:18:58.595Z,40.70
2018-03-06T04:21:26.253Z,35.00
2018-03-06T04:23:53.845Z,32.30
2018-03-06T04:26:21.445Z,33.70
2018-03-06T04:28:49.108Z,31.97
2018-03-06T04:31:16.722Z,34.17
2018-03-06T04:33:44.322Z,31.30
2018-03-06T04:36:11.920Z,32.40
2018-03-06T04:38:39.660Z,29.30
2018-03-06T04:41:07.261Z,35.87
2018-03-06T04:43:34.863Z,34.93
2018-03-06T04:46:02.446Z,32.50
2018-03-06T04:48:30.014Z,34.33
2018-03-06T04:50:57.602Z,34.23
2018-03-06T04:53:25.189Z,35.67
2018-03-06T04:55:52.818Z,32.07
2018-03-06T04:58:20.429Z,32.27
2018-03-06T05:00:48.011Z,33.50
2018-03-06T05:03:15.634Z,32.90
2018-03-06T05:05:43.283Z,31.30
2018-03-06T05:08:10.903Z,28.13
2018-03-06T05:10:38.679Z,31.83
2018-03-06T05:13:06.271Z,38.63
2018-03-06T05:15:33.864Z,35.23
2018-03-06T05:18:01.454Z,34.17
2018-03-06T05:20:29.046Z,31.60
2018-03-06T05:22:56.671Z,44.67
2018-03-06T05:25:24.241Z,31.63
2018-03-06T05:27:51.912Z,34.40
2018-03-06T05:30:19.489Z,31.73
2018-03-06T05:32:47.071Z,28.37
2018-03-06T05:35:14.669Z,26.93
2018-03-06T05:37:43.080Z,30.40
2018-03-06T05:40:10.685Z,31.10
2018-03-06T05:42:38.292Z,33.17
2018-03-06T05:45:05.862Z,37.17
2018-03-06T05:47:33.471Z,34.53
2018-03-06T05:50:02.058Z,35.00
2018-03-06T05:52:30.476Z,34.23
2018-03-06T05:54:58.072Z,30.73
2018-03-06T05:57:25.719Z,31.97
2018-03-06T05:59:53.293Z,35.10
2018-03-06T06:02:20.890Z,38.63
2018-03-06T06:04:48.567Z,35.33
2018-03-06T06:07:16.197Z,32.80
2018-03-06T06:09:43.809Z,34.40
2018-03-06T06:12:11.416Z,31.27
2018-03-06T06:14:39.210Z,33.20
2018-03-06T06:17:06.808Z,34.07
2018-03-06T06:19:35.194Z,34.83
2018-03-06T06:22:03.560Z,31.20
2018-03-06T06:24:31.170Z,32.27
2018-03-06T06:26:58.768Z,36.40
2018-03-06T06:29:26.362Z,44.87
2018-03-06T06:31:54.048Z,40.00
2018-03-06T06:34:22.469Z,41.53
2018-03-06T06:36:50.819Z,37.27
2018-03-06T06:39:18.456Z,44.93
2018-03-06T06:41:46.070Z,44.47
2018-03-06T06:44:14.477Z,44.63
2018-03-06T06:46:42.911Z,49.47
2018-03-06T06:49:11.266Z,50.43
2018-03-06T06:51:39.614Z,40.43
2018-03-06T06:54:07.194Z,39.17
2018-03-06T06:56:34.765Z,36.03
2018-03-06T06:59:02.373Z,42.27
2018-03-06T07:01:30.016Z,38.93
2018-03-06T07:03:57.579Z,35.80
2018-03-06T07:06:25.173Z,41.67
2018-03-06T07:08:52.835Z,52.27
2018-03-06T07:11:20.563Z,44.50
2018-03-06T07:13:48.167Z,37.43
2018-03-06T07:16:15.780Z,41.83
2018-03-06T07:18:43.394Z,38.87
2018-03-06T07:21:11.009Z,36.63
2018-03-06T07:23:39.152Z,36.27
2018-03-06T07:26:06.740Z,36.37
2018-03-06T07:28:34.429Z,42.67
2018-03-06T07:31:02.010Z,38.13
2018-03-06T07:33:29.663Z,36.90
2018-03-06T07:35:57.251Z,39.70
2018-03-06T07:38:24.871Z,44.60
2018-03-06T07:40:53.229Z,42.87
2018-03-06T07:43:21.650Z,45.17
2018-03-06T07:45:49.262Z,47.47
2018-03-06T07:48:16.921Z,47.17
2018-03-06T07:50:44.528Z,44.87
2018-03-06T07:53:12.144Z,49.07
2018-03-06T07:55:39.732Z,42.67
2018-03-06T07:58:08.115Z,44.63
2018-03-06T08:00:37.263Z,47.70
2018-03-06T08:03:05.686Z,47.70
2018-03-06T08:05:33.289Z,48.43
2018-03-06T08:08:00.938Z,45.60
2018-03-06T08:10:28.526Z,41.40
2018-03-06T08:12:56.157Z,43.53
2018-03-06T08:15:23.757Z,39.13
2018-03-06T08:17:51.388Z,38.53
2018-03-06T08:20:19.042Z,35.07
2018-03-06T08:22:46.637Z,37.43
2018-03-06T08:25:14.254Z,39.80
2018-03-06T08:27:41.828Z,38.00
2018-03-06T08:30:10.208Z,37.80
2018-03-06T08:32:39.009Z,42.37
2018-03-06T08:35:07.390Z,41.43
2018-03-06T08:37:34.941Z,40.70
2018-03-06T08:40:02.545Z,36.93
2018-03-06T08:42:30.134Z,34.60
2018-03-06T08:44:58.543Z,36.23
2018-03-06T08:47:27.454Z,37.20
2018-03-06T08:49:55.050Z,36.80
2018-03-06T08:52:59.130Z,37.10
2018-03-06T08:55:28.723Z,33.17
2018-03-06T08:57:58.063Z,38.17
2018-03-06T09:00:26.475Z,37.27
2018-03-06T09:02:54.934Z,33.77
2018-03-06T09:05:23.581Z,35.67
2018-03-06T09:07:51.171Z,33.37
2018-03-06T09:10:18.750Z,29.20
2018-03-06T09:12:46.360Z,31.87
2018-03-06T09:15:13.935Z,35.43
2018-03-06T09:17:42.185Z,36.43
2018-03-06T09:20:11.115Z,36.17
2018-03-06T09:22:39.902Z,37.87
2018-03-06T09:25:08.379Z,36.03
2018-03-06T09:27:37.669Z,34.27
2018-03-06T09:30:06.019Z,34.67
2018-03-06T09:32:33.931Z,39.17
2018-03-06T09:35:06.846Z,48.00
2018-03-06T09:37:35.224Z,44.43
2018-03-06T09:40:05.328Z,39.53
2018-03-06T09:42:34.602Z,39.97
2018-03-06T09:45:03.406Z,36.50
2018-03-06T09:47:32.106Z,38.17
2018-03-06T09:50:01.914Z,33.83
2018-03-06T09:52:30.012Z,33.13
2018-03-06T09:54:57.831Z,34.67
2018-03-06T09:57:25.517Z,32.83
2018-03-06T09:59:53.404Z,32.70
2018-03-06T10:02:22.877Z,34.80
2018-03-06T10:04:50.937Z,31.07
2018-03-06T10:07:18.554Z,28.07
2018-03-06T10:09:47.027Z,32.47
2018-03-06T10:12:15.451Z,33.57
2018-03-06T10:14:43.871Z,33.37
2018-03-06T10:17:11.527Z,35.90
2018-03-06T10:19:39.469Z,35.43
2018-03-06T10:22:07.162Z,32.03
2018-03-06T10:24:35.567Z,38.47
2018-03-06T10:27:03.975Z,40.93
2018-03-06T10:29:31.635Z,39.30
2018-03-06T10:31:59.358Z,41.97
2018-03-06T10:34:27.002Z,37.10
2018-03-06T10:36:54.621Z,37.43
2018-03-06T10:39:23.070Z,35.90
2018-03-06T10:41:50.708Z,38.70
2018-03-06T10:44:19.129Z,38.37
2018-03-06T10:46:46.756Z,37.87
2018-03-06T10:49:16.064Z,35.37
2018-03-06T10:51:43.663Z,34.03
2018-03-06T10:54:12.055Z,32.37
2018-03-06T10:56:40.424Z,36.67
2018-03-06T10:59:08.046Z,40.63
2018-03-06T11:01:36.700Z,37.47
2018-03-06T11:04:04.361Z,37.13
2018-03-06T11:06:31.960Z,36.97
2018-03-06T11:09:00.334Z,34.67
2018-03-06T11:11:27.921Z,36.27
2018-03-06T11:13:56.260Z,39.37
2018-03-06T11:16:23.845Z,35.83
2018-03-06T11:18:51.459Z,33.77
2018-03-06T11:21:19.135Z,37.33
2018-03-06T11:23:47.584Z,38.70
2018-03-06T11:26:15.166Z,38.13
2018-03-06T11:28:42.771Z,34.00
2018-03-06T11:31:11.175Z,38.67
2018-03-06T11:33:39.542Z,32.37
2018-03-06T11:36:07.126Z,32.10
2018-03-06T11:38:34.746Z,31.13
2018-03-06T11:41:03.073Z,34.20
2018-03-06T11:43:30.772Z,30.10
2018-03-06T11:45:59.165Z,31.47
2018-03-06T11:48:26.777Z,30.13
2018-03-06T11:50:54.742Z,32.87
2018-03-06T11:53:22.371Z,28.10
2018-03-06T11:55:49.936Z,27.80
2018-03-06T11:58:18.304Z,27.60
2018-03-06T12:00:45.881Z,25.90
2018-03-06T12:03:13.494Z,25.27
2018-03-06T12:05:41.134Z,25.30
2018-03-06T12:08:08.804Z,23.80
2018-03-06T12:10:36.394Z,26.23
2018-03-06T12:13:04.802Z,25.93
2018-03-06T12:15:33.167Z,24.67
2018-03-06T12:18:00.908Z,24.80
2018-03-06T12:20:28.481Z,24.23
2018-03-06T12:22:56.056Z,25.07
2018-03-06T12:25:23.682Z,26.47
2018-03-06T12:27:52.047Z,23.57
2018-03-06T12:30:19.652Z,24.27
2018-03-06T12:32:48.011Z,21.93
2018-03-06T12:35:15.686Z,22.73
2018-03-06T12:37:43.351Z,21.37
2018-03-06T12:40:10.937Z,22.17
2018-03-06T12:42:38.629Z,20.53
2018-03-06T12:45:06.987Z,17.93
2018-03-06T12:47:34.609Z,19.00
2018-03-06T12:50:02.201Z,17.47
2018-03-06T12:52:29.832Z,18.60
2018-03-06T12:54:58.379Z,16.60
2018-03-06T12:57:25.892Z,17.43
2018-03-06T12:59:53.526Z,17.10
2018-03-06T13:02:21.120Z,17.53
2018-03-06T13:04:50.327Z,17.70
2018-03-06T13:07:17.964Z,13.70
2018-03-06T13:09:45.630Z,16.97
2018-03-06T13:12:13.249Z,17.37
2018-03-06T13:14:40.867Z,15.97
2018-03-06T13:17:08.474Z,15.03
2018-03-06T13:19:36.116Z,14.13
2018-03-06T13:22:03.723Z,12.93
2018-03-06T13:24:31.357Z,13.80
2018-03-06T13:26:59.691Z,14.40
2018-03-06T13:29:27.336Z,15.57
2018-03-06T13:31:54.902Z,16.13
2018-03-06T13:34:22.485Z,16.33
2018-03-06T13:36:50.150Z,18.20
2018-03-06T13:39:17.774Z,17.57
2018-03-06T13:41:45.412Z,18.97
2018-03-06T13:44:12.983Z,20.40
2018-03-06T13:46:40.560Z,20.87
2018-03-06T13:49:08.164Z,20.23
2018-03-06T13:51:35.789Z,21.00
2018-03-06T13:54:03.559Z,22.33
2018-03-06T13:56:31.216Z,21.03
2018-03-06T13:59:00.213Z,23.07
2018-03-06T14:01:28.616Z,20.83
2018-03-06T14:03:57.044Z,21.33
2018-03-06T14:06:24.707Z,20.30
2018-03-06T14:08:52.908Z,16.43
2018-03-06T14:11:22.212Z,18.43
2018-03-06T14:13:49.783Z,15.97
2018-03-06T14:16:17.423Z,15.77
2018-03-06T14:18:45.025Z,18.27
2018-03-06T14:21:12.646Z,17.90
2018-03-06T14:23:41.076Z,15.90
2018-03-06T14:26:08.665Z,16.37
2018-03-06T14:28:36.240Z,20.13
2018-03-06T14:31:03.869Z,19.43
2018-03-06T14:33:32.244Z,18.93
2018-03-06T14:36:01.608Z,22.17
2018-03-06T14:38:29.166Z,19.33
2018-03-06T14:40:58.205Z,18.33
2018-03-06T14:43:25.810Z,17.30
2018-03-06T14:45:53.421Z,20.37
2018-03-06T14:48:21.028Z,16.23
2018-03-06T14:50:48.603Z,16.70
2018-03-06T14:53:16.886Z,15.13
2018-03-06T14:55:44.475Z,17.00
2018-03-06T14:58:12.124Z,16.53
2018-03-06T15:00:39.825Z,24.60
2018-03-06T15:03:07.626Z,19.67
2018-03-06T15:05:35.199Z,15.97
2018-03-06T15:08:02.780Z,18.33
2018-03-06T15:10:31.141Z,19.13
2018-03-06T15:12:58.716Z,18.17
2018-03-06T15:15:26.338Z,20.53
2018-03-06T15:17:53.935Z,19.43
2018-03-06T15:20:22.309Z,18.33
2018-03-06T15:22:49.890Z,17.23
2018-03-06T15:25:17.540Z,18.23
2018-03-06T15:27:45.148Z,16.87
2018-03-06T15:30:12.784Z,18.50
2018-03-06T15:32:40.480Z,17.07
2018-03-06T15:35:08.101Z,15.13
2018-03-06T15:37:35.686Z,15.63
2018-03-06T15:40:04.038Z,19.23
2018-03-06T15:42:31.635Z,17.57
2018-03-06T15:44:59.215Z,16.17
2018-03-06T15:47:26.812Z,18.67
2018-03-06T15:49:54.396Z,20.33
2018-03-06T15:52:22.030Z,21.53
2018-03-06T15:54:49.640Z,18.30
2018-03-06T15:57:18.073Z,19.77
2018-03-06T15:59:45.709Z,19.50
2018-03-06T16:02:13.323Z,18.13
2018-03-06T16:04:40.959Z,19.00
2018-03-06T16:07:08.531Z,22.70
2018-03-06T16:09:36.150Z,20.13
2018-03-06T16:12:03.757Z,19.63
2018-03-06T16:14:32.168Z,17.63
2018-03-06T16:16:59.750Z,19.43
2018-03-06T16:19:27.346Z,18.53
2018-03-06T16:21:54.946Z,16.47
2018-03-06T16:24:22.525Z,16.47
2018-03-06T16:26:50.869Z,17.27
2018-03-06T16:29:18.440Z,21.73
2018-03-06T16:31:46.088Z,22.50
2018-03-06T16:34:13.684Z,31.63
2018-03-06T16:36:41.297Z,41.47
2018-03-06T16:39:09.686Z,31.07
2018-03-06T16:41:38.480Z,24.07
2018-03-06T16:44:06.084Z,22.37
2018-03-06T16:46:33.698Z,25.30
2018-03-06T16:49:01.293Z,23.77
2018-03-06T16:51:28.890Z,23.07
2018-03-06T16:53:57.241Z,23.20
2018-03-06T16:56:25.611Z,25.47
2018-03-06T16:58:53.189Z,28.37
2018-03-06T17:01:20.785Z,28.00
2018-03-06T17:03:48.369Z,30.23
2018-03-06T17:06:16.035Z,29.00
2018-03-06T17:08:43.692Z,28.10
2018-03-06T17:11:11.371Z,26.97
2018-03-06T17:13:39.194Z,27.90
2018-03-06T17:16:06.769Z,29.97
2018-03-06T17:18:34.371Z,31.33
2018-03-06T17:21:01.938Z,32.13
2018-03-06T17:23:29.509Z,35.87
2018-03-06T17:25:57.086Z,38.47
2018-03-06T17:28:24.662Z,37.27
2018-03-06T17:30:52.228Z,32.83
2018-03-06T17:33:19.829Z,30.60
2018-03-06T17:35:47.418Z,29.57
2018-03-06T17:38:15.011Z,33.43
2018-03-06T17:40:43.344Z,34.67
2018-03-06T17:43:10.911Z,36.07
2018-03-06T17:45:39.505Z,35.43
2018-03-06T17:48:07.071Z,36.27
2018-03-06T17:50:34.623Z,36.47
2018-03-06T17:53:02.195Z,42.40
2018-03-06T17:55:29.776Z,42.83
2018-03-06T17:57:57.342Z,36.83
2018-03-06T18:00:24.915Z,29.30
2018-03-06T18:02:52.491Z,32.87
2018-03-06T18:05:20.075Z,36.53
2018-03-06T18:07:47.646Z,29.80
2018-03-06T18:10:15.237Z,29.33
2018-03-06T18:12:42.804Z,31.80
2018-03-06T18:15:10.361Z,27.90
2018-03-06T18:17:38.978Z,25.47
2018-03-06T18:20:07.319Z,27.33
2018-03-06T18:22:35.653Z,28.33
2018-03-06T18:25:03.227Z,25.80
2018-03-06T18:27:30.779Z,30.90
2018-03-06T18:29:58.365Z,32.53
2018-03-06T18:32:25.924Z,30.63
2018-03-06T18:34:53.478Z,23.47
2018-03-06T18:37:21.113Z,25.40
2018-03-06T18:39:49.541Z,24.13
2018-03-06T18:42:17.115Z,23.80
2018-03-06T18:44:44.691Z,25.07
2018-03-06T18:47:12.312Z,25.83
2018-03-06T18:50:01.587Z,24.10
2018-03-06T18:52:29.164Z,25.00
2018-03-06T18:54:56.758Z,24.80
2018-03-06T18:57:24.375Z,23.40
2018-03-06T19:00:03.880Z,26.37
2018-03-06T19:02:43.294Z,23.43
2018-03-06T19:05:22.712Z,26.17
2018-03-06T19:07:51.060Z,27.37
2018-03-06T19:10:18.648Z,24.87
2018-03-06T19:12:47.032Z,27.27
2018-03-06T19:15:14.600Z,26.97
2018-03-06T19:17:42.208Z,26.13
2018-03-06T19:20:10.574Z,25.33
2018-03-06T19:22:38.936Z,27.63
2018-03-06T19:25:06.568Z,26.63
2018-03-06T19:27:34.120Z,24.60
2018-03-06T19:30:01.694Z,28.73
2018-03-06T19:32:29.254Z,23.47
2018-03-06T19:34:56.809Z,29.10
2018-03-06T19:37:24.380Z,28.17
2018-03-06T19:39:51.959Z,25.90
2018-03-06T19:42:19.535Z,24.13
2018-03-06T19:44:47.104Z,23.10
2018-03-06T19:47:14.708Z,26.60
2018-03-06T19:49:42.300Z,24.60
2018-03-06T19:52:10.645Z,24.53
2018-03-06T19:54:38.466Z,26.70
2018-03-06T19:57:06.808Z,27.27
2018-03-06T19:59:34.407Z,26.07
2018-03-06T20:02:01.967Z,28.27
2018-03-06T20:04:29.551Z,23.23
2018-03-06T20:06:57.130Z,25.00
2018-03-06T20:09:24.735Z,25.73
2018-03-06T20:11:53.085Z,29.33
2018-03-06T20:14:26.222Z,27.73
2018-03-06T20:16:54.587Z,26.97
2018-03-06T20:19:41.845Z,27.63
2018-03-06T20:22:10.181Z,26.43
2018-03-06T20:24:43.317Z,25.37
2018-03-06T20:27:10.875Z,25.13
2018-03-06T20:29:38.616Z,26.20
2018-03-06T20:32:11.755Z,24.20
2018-03-06T20:34:39.565Z,27.47
2018-03-06T20:37:07.918Z,25.70
2018-03-06T20:39:41.136Z,24.67
2018-03-06T20:42:08.707Z,23.63
2018-03-06T20:44:36.332Z,26.13
2018-03-06T20:47:09.640Z,23.50
2018-03-06T20:49:37.276Z,24.33
2018-03-06T20:52:04.866Z,24.97
2018-03-06T20:54:39.012Z,25.80
2018-03-06T20:57:06.612Z,25.57
2018-03-06T20:59:34.224Z,22.57
2018-03-06T21:02:01.796Z,24.77
2018-03-06T21:04:30.184Z,22.90
2018-03-06T21:06:58.531Z,24.43
2018-03-06T21:09:26.102Z,22.50
2018-03-06T21:11:53.666Z,24.40
2018-03-06T21:14:21.535Z,24.90
2018-03-06T21:16:49.106Z,22.97
2018-03-06T21:19:16.716Z,24.23
2018-03-06T21:21:45.148Z,25.63
2018-03-06T21:24:13.618Z,32.27
2018-03-06T21:26:41.617Z,28.30
2018-03-06T21:29:09.561Z,30.40
2018-03-06T21:31:38.726Z,28.37
2018-03-06T21:34:06.418Z,26.23
2018-03-06T21:36:34.317Z,27.90
2018-03-06T21:39:01.956Z,55.87
2018-03-06T21:41:29.599Z,37.17
2018-03-06T21:43:57.733Z,35.30
2018-03-06T21:46:26.138Z,34.47
2018-03-06T21:48:53.772Z,38.13
2018-03-06T21:51:22.455Z,40.07
2018-03-06T21:53:50.807Z,34.70
2018-03-06T21:56:19.223Z,31.87
2018-03-06T21:58:46.815Z,32.63
2018-03-06T22:01:15.376Z,35.83
2018-03-06T22:03:43.154Z,30.53
2018-03-06T22:06:11.014Z,30.97
2018-03-06T22:08:38.842Z,32.50
2018-03-06T22:11:06.602Z,31.63
2018-03-06T22:13:34.194Z,33.13
2018-03-06T22:16:02.542Z,28.57
2018-03-06T22:18:30.908Z,32.90
2018-03-06T22:20:59.161Z,32.47
2018-03-06T22:23:28.375Z,35.70
2018-03-06T22:25:56.586Z,32.63
2018-03-06T22:28:24.186Z,33.20
2018-03-06T22:30:51.768Z,31.30
2018-03-06T22:33:19.341Z,31.93
2018-03-06T22:35:46.927Z,37.43
2018-03-06T22:38:14.716Z,35.57
2018-03-06T22:40:43.130Z,36.20
2018-03-06T22:43:10.724Z,35.73
2018-03-06T22:45:38.514Z,38.13
2018-03-06T22:48:06.075Z,37.20
2018-03-06T22:50:33.631Z,36.97
2018-03-06T22:53:01.216Z,34.57
2018-03-06T22:55:28.791Z,36.47
2018-03-06T22:57:56.417Z,40.07
2018-03-06T23:00:24.755Z,37.97
2018-03-06T23:02:52.322Z,39.97
2018-03-06T23:05:19.959Z,39.53
2018-03-06T23:07:48.300Z,41.40
2018-03-06T23:10:16.069Z,40.50
2018-03-06T23:12:44.491Z,38.93
2018-03-06T23:15:12.066Z,37.77
2018-03-06T23:17:39.814Z,43.90
2018-03-06T23:20:07.396Z,43.27
2018-03-06T23:22:34.987Z,38.87
2018-03-06T23:25:02.583Z,42.93
2018-03-06T23:27:31.729Z,43.20
2018-03-06T23:29:59.311Z,40.20
2018-03-06T23:32:26.889Z,44.57
2018-03-06T23:34:54.489Z,40.57
2018-03-06T23:37:22.048Z,40.30
2018-03-06T23:39:50.399Z,44.73
2018-03-06T23:42:17.964Z,43.83
2018-03-06T23:44:45.564Z,44.77
2018-03-06T23:47:13.131Z,45.00
2018-03-06T23:49:40.712Z,44.70
2018-03-06T23:52:08.302Z,41.17
2018-03-06T23:54:35.868Z,45.93
2018-03-06T23:57:03.605Z,50.07
2018-03-06T23:59:31.174Z,51.47
